DTMB

Monastir Habib Bourguiba International Airport

Monastir, Tunisia
METAR DTMB 261330Z 07022KT CAVOK 27/13 Q1016 NOSIG
Observed Flight Rules
May-26 @ 13:30 UTC (25 minutes ago) Visual Flight Rules
Wind Visibility Clouds
70° at 22 knots 10,000+ meters
  • Clear skies
Temperatures Readings
Current 27°C / 81°F
Dewpoint 13°C / 55°F
Humidity 42%
Altimeter 30" Hg
Pressure 1016 hPa
Elevation 2
METAR DTMB 261330Z 07022KT CAVOK 27/13 Q1016 NOSIG
Observed Flight Rules
May-26 @ 13:30 UTC
(25 minutes ago)
VFR
Wind Visibility
70° at 22 knots 10,000+ meters
Clouds
  • Clear skies
Temperature Dewpoint
27°C / 81°F 13°C / 55°F
Humidity Altimeter Pressure
42% 30" Hg 1016 hPa